Forside
METAR-TAF:

METAR-TAF

Lufthavne :

Marquette, Michigan, USA

Breddekreds: 46-21-13N, længdekreds: 087-23-45W, højde: 372 m

Aktuelle vejr

Denne rapport blev lavet for 24 minutter siden, kl. 02:38 UTC
Vind 7 kt fra syd
Temperatur 18°C
Fugtighed 77%
Tryk 1013 hPa
Sigt: 16.1 km
skyfri

METAR: KSAW 250238Z AUTO 17007KT 10SM CLR 18/14 A2990 RMK AO2 T01800141

Tid: 23:02 (03:02 UTC)

Vejrudsigter

Denne rapport blev lavet for 3 timer og 21 minutter siden, kl. 23:41 UTC
Foreløbig gælder fra 25 på 00 UTC til 25 på 24 UTC
Vind 5 kt fra sydsydøst
Sigt: 10 km
Spredte skyer i en højde af 12000 ft
Fra 25 på 0600 UTC
Vind 5 kt fra syd
Sigt: 8.0 km
Brudte skyer i en højde af 10000 ft
dis
Fra 25 på 0900 UTC
Vind 5 kt fra sydsydvest
Sigt: 4.8 km
Brudte skyer i en højde af 1900 ft
dis, byger i nærheden
Fra 25 på 1300 UTC
Vind 6 kt fra syd
Sigt: 10 km
Spredte skyer i en højde af 3500 ft

TAF: KSAW 242341Z 2500/2524 15005KT P6SM SCT120 FM250600 19005KT 5SM BR BKN100 FM250900 20005KT 3SM BR VCSH BKN019 FM251300 19006KT P6SM SCT035

Vejrobservationer og prognoser fra mere end 4000 lufthavne (METAR og TAF).

De gule og røde prikker repræsenterer de meteorologiske stationer.

Flyt musen over at se navnet på stationen.

Så klik over at se vejr observationer og prognoser.

At skifte det kort: Klik på de grønne knapper med et sort kors for at zoome ind; på den grønne knap med en bindestreg for at zoome ud; eller på de grønne pile for tilstødende kort.


METAR-TAF: